x

8447387 - Borden Flats Light At Fall River, Ma (bltm3) Weather Station

10:54 - Sun 25th Sep 2016 All times are EDT. -4 hours from GMT.

  • Wind
    7mph, 9mph gusts
  • Ar Temp 58°f
  • Sea Pressure 1022.3mb
  • 8447387 - Borden Flats Light At Fall River, Ma
  • 8447387 - Borden Flats Light At Fall River, Ma

More Historic Weather Station data

Upgrade to MSW Pro to gain access to the past 30 days of data for over 8000 Wavebouys and Weather Stations around the globe.

Join Pro

Comparision Forecast

View Surf forecast
   
Dom 09/25 10:54 7 9 mph 1022.3mb 58f
10:48 6 8 mph 1022.3mb 58f
10:42 6 8 mph 1022.4mb 58f
10:36 5 8 mph 1022.5mb 58f
10:30 6 7 mph 1022.2mb 58f
10:24 8 10 mph 1022.1mb 58f
10:18 10 11 mph - 58f
10:12 8 10 mph - 59f
10:06 7 9 mph - 59f
10:00 8 10 mph 1022.1mb 59f
9:54 9 11 mph 1022.1mb 59f
9:48 13 15 mph - 59f
9:42 14 16 mph - 59f
9:36 10 13 mph - 59f
9:30 8 10 mph 1022mb 59f
9:24 9 11 mph 1021.9mb 60f
9:18 9 10 mph 1021.8mb 60f
9:12 8 10 mph 1021.7mb 60f
9:06 8 10 mph 1021.7mb 60f
9:00 9 10 mph 1021.6mb 60f
8:54 10 11 mph 1021.5mb 61f
8:48 9 10 mph 1021.4mb 61f
8:42 7 8 mph 1021.4mb 61f
8:36 6 7 mph 1021.4mb 61f
8:30 6 7 mph 1021.4mb 62f
8:24 7 9 mph 1021.3mb 62f
8:18 9 10 mph 1021.2mb 61f
8:12 8 10 mph 1021.1mb 62f
8:06 7 8 mph 1021.1mb 62f
8:00 7 10 mph 1021.1mb 62f
7:54 7 10 mph 1020.9mb 62f
7:48 7 9 mph 1020.8mb -
7:42 7 10 mph 1020.6mb -
7:36 8 10 mph 1020.5mb -
7:30 8 9 mph - 63f
7:24 7 9 mph - 64f
7:18 6 9 mph 1020.3mb 64f
7:12 6 7 mph 1020.2mb 64f
7:06 7 8 mph 1020.1mb 64f
7:00 7 9 mph 1020mb 64f
6:54 7 9 mph 1020mb 64f
6:48 8 13 mph 1019.9mb -
6:42 9 13 mph 1019.7mb -
6:36 7 10 mph 1019.6mb -
6:30 8 10 mph 1019.6mb 66f
6:24 9 14 mph 1019.5mb 67f
6:18 9 11 mph 1019.4mb 67f
6:12 10 14 mph 1019.2mb 67f
6:06 9 14 mph 1019.1mb 68f
6:00 10 15 mph 1019mb 68f
5:54 10 14 mph 1019mb 68f
5:48 13 16 mph 1018.9mb 68f
5:42 11 16 mph 1019mb 69f
5:36 10 14 mph 1019mb 69f
5:30 14 20 mph 1019mb 69f
5:24 10 14 mph 1019mb 69f
5:18 11 15 mph 1018.9mb 69f
5:12 11 15 mph 1018.8mb 69f
5:06 10 17 mph 1018.7mb 69f
5:00 13 17 mph 1018.6mb 69f
4:54 13 17 mph 1018.7mb 69f
4:48 13 15 mph 1018.7mb 69f
4:42 14 18 mph 1018.6mb 69f
4:36 13 15 mph 1018.6mb 69f
4:30 13 18 mph 1018.6mb 69f
4:24 13 20 mph 1018.7mb 69f
4:18 15 21 mph 1018.6mb 69f
4:12 16 18 mph 1018.6mb 68f
4:00 11 16 mph 1018.5mb 69f
3:54 14 20 mph 1018.5mb 68f
3:48 15 20 mph 1018.6mb 68f
3:42 17 23 mph 1018.7mb 68f
3:36 15 18 mph 1018.7mb 68f
3:30 14 16 mph 1018.7mb 69f
3:24 17 22 mph 1018.8mb 68f
3:18 11 14 mph 1018.8mb 67f
3:12 15 20 mph 1018.9mb 68f
3:06 13 22 mph 1018.8mb 68f
3:00 13 15 mph 1018.9mb 67f
2:54 17 26 mph 1018.8mb 67f
2:48 21 26 mph 1018.7mb 67f
2:42 16 22 mph 1018.8mb 67f
2:36 15 18 mph 1018.9mb 67f
2:30 20 25 mph 1018.9mb 67f
2:24 16 22 mph 1019mb 67f
2:18 8 14 mph 1019.1mb 66f
2:12 14 17 mph 1019.2mb 66f
2:06 17 23 mph 1019.1mb 65f
2:00 14 24 mph 1019.2mb 65f
1:54 13 16 mph 1019.3mb 65f
1:48 14 20 mph 1019.3mb 64f
1:42 10 18 mph 1019.5mb 64f
1:36 13 16 mph 1019.5mb 64f
1:30 15 22 mph 1019.5mb 64f
1:24 11 15 mph 1019.6mb 64f
1:18 15 20 mph 1019.7mb 63f
1:12 14 17 mph 1019.9mb 65f
1:06 14 21 mph 1019.9mb 64f
1:00 15 23 mph 1020mb 62f
12:54 14 18 mph 1020.1mb 63f
12:48 11 17 mph 1020.1mb 63f
12:42 17 22 mph 1020.1mb 63f
12:36 14 18 mph 1020.2mb 63f
12:30 17 25 mph 1020.2mb 62f
12:24 10 15 mph 1020.3mb 63f
12:18 11 16 mph 1020.3mb 64f
12:12 10 17 mph 1020.4mb 63f
12:06 11 15 mph 1020.3mb 63f
12:00 14 17 mph 1020.3mb 63f
11:54 14 20 mph 1020.4mb 62f
11:48 17 22 mph 1020.4mb 62f
11:42 14 16 mph 1020.5mb 62f
11:36 17 23 mph 1020.4mb 62f
11:30 14 22 mph 1020.6mb 61f
11:24 14 17 mph 1020.7mb 60f
11:18 14 20 mph 1020.7mb 60f
11:12 15 21 mph 1020.6mb 61f
11:06 16 23 mph 1020.7mb 60f
11:00 14 21 mph 1020.8mb 60f
10:54 16 22 mph 1020.7mb 60f
10:48 16 22 mph 1020.8mb 60f
10:42 14 20 mph 1020.9mb 60f
10:36 13 20 mph 1021mb 59f
10:30 11 17 mph 1021.1mb 59f
10:24 17 25 mph 1021mb 59f
10:18 16 23 mph 1021.1mb 59f
10:12 14 17 mph 1021.1mb 58f
10:06 17 23 mph 1021.1mb 58f
10:00 17 24 mph 1021mb 58f
9:54 17 22 mph 1021.1mb 58f
9:48 16 23 mph 1021.1mb 58f
9:42 17 22 mph 1021.1mb 57f
9:36 16 22 mph 1021mb 57f
9:30 13 18 mph 1021mb 57f
9:24 14 17 mph 1021.1mb 56f
9:18 15 18 mph 1021.1mb 56f
9:12 11 17 mph 1021.2mb 56f
9:06 11 15 mph 1021.2mb 56f
9:00 8 13 mph 1021.3mb 55f
8:54 9 13 mph 1021.3mb 55f
8:48 8 13 mph 1021.3mb 55f
8:42 10 13 mph 1021.3mb 54f
8:36 8 10 mph 1021.3mb 54f
8:30 9 13 mph 1021.4mb 54f
8:24 9 13 mph 1021.4mb 54f
8:18 10 14 mph 1021.4mb 53f
8:12 10 17 mph 1021.3mb 53f
8:06 11 17 mph 1021.3mb 53f
8:00 11 16 mph 1021.3mb 52f
7:54 10 14 mph 1021.3mb 52f
7:48 11 16 mph 1021.2mb 52f
7:42 11 14 mph 1021.2mb 51f
7:36 10 13 mph 1021.1mb 51f
7:30 10 13 mph 1021mb 51f
7:24 8 10 mph 1021mb 51f
7:18 8 11 mph 1021mb 50f
7:12 7 10 mph 1021mb 50f
7:06 7 10 mph 1021mb 50f
7:00 7 10 mph 1020.9mb 50f
6:54 7 9 mph 1020.8mb 50f
6:48 7 9 mph 1020.8mb 49f
6:42 7 9 mph 1020.7mb 50f
6:36 8 10 mph 1020.7mb 50f
6:30 7 9 mph 1020.6mb 50f
6:24 8 10 mph 1020.6mb 50f
6:18 8 10 mph 1020.6mb 50f
6:12 8 10 mph 1020.5mb 50f
6:06 9 11 mph 1020.5mb 50f
6:00 8 10 mph 1020.5mb 51f
5:54 9 14 mph 1020.5mb 51f
5:48 11 14 mph 1020.4mb 50f
5:42 10 13 mph 1020.4mb 50f
5:36 11 14 mph 1020.3mb 51f
5:30 10 14 mph 1020.2mb 51f
5:24 10 14 mph 1020.1mb 51f
5:18 13 16 mph 1020mb 51f
5:12 10 14 mph 1020mb 51f
5:06 9 13 mph 1020mb 51f
5:00 9 13 mph 1020mb 51f
4:54 9 11 mph 1020mb 51f
4:48 9 13 mph 1020.1mb 51f
4:42 9 13 mph 1020mb 51f
4:36 11 17 mph 1019.8mb 51f
4:30 10 14 mph 1019.8mb 52f
4:24 11 15 mph 1019.8mb 52f
4:18 11 16 mph 1019.7mb 52f
4:12 10 15 mph 1019.8mb 53f
4:06 9 13 mph 1019.8mb 52f
4:00 9 14 mph 1019.6mb 52f
3:54 11 16 mph 1019.6mb 52f
3:48 10 15 mph 1019.8mb 52f
3:42 10 13 mph 1019.5mb 53f
3:36 11 15 mph 1019.5mb 53f
3:30 9 11 mph 1019.7mb 53f
3:24 10 14 mph 1019.5mb 53f
3:18 11 15 mph 1019.4mb 53f
3:12 11 15 mph 1019.6mb 53f
3:06 10 13 mph 1019.6mb 53f
3:00 11 14 mph 1019.5mb 53f
2:54 10 13 mph 1019.7mb 53f
2:48 8 11 mph 1019.7mb -
2:42 8 11 mph 1019.7mb -
2:36 8 9 mph 1019.7mb -
2:30 9 11 mph 1019.6mb 53f
2:24 9 13 mph 1019.6mb 54f
2:18 8 11 mph 1019.6mb 54f
2:12 9 13 mph 1019.5mb 54f
2:06 9 13 mph 1019.4mb 54f
2:00 10 13 mph 1019.3mb 54f
1:54 10 13 mph 1019.4mb 55f
1:48 10 13 mph - -
1:42 9 13 mph - -
1:36 9 11 mph - -
1:30 9 11 mph 1019.4mb 55f
1:24 8 11 mph 1019.3mb 56f
1:18 9 11 mph 1019.4mb 56f
1:12 8 11 mph 1019.4mb 56f
1:06 7 9 mph 1019.4mb 56f
1:00 8 10 mph 1019.4mb 56f
12:54 8 9 mph 1019.3mb 56f
12:48 8 10 mph 1019.2mb 56f
12:42 8 10 mph 1019.3mb 57f
12:36 8 10 mph 1019.3mb 57f
12:30 8 10 mph 1019.4mb 57f
12:24 7 10 mph 1019.4mb 57f
12:18 6 8 mph 1019.5mb 57f
12:12 6 8 mph 1019.6mb 57f
12:06 6 8 mph 1019.7mb 57f
12:00 5 7 mph 1019.7mb 57f
Sáb 09/24 11:54 6 7 mph 1019.7mb 57f
11:48 6 7 mph 1019.8mb 57f
11:42 8 9 mph 1019.8mb 57f
11:36 8 9 mph 1019.8mb 57f
11:30 9 10 mph 1019.8mb 57f
11:24 8 10 mph 1019.7mb 57f
11:18 9 10 mph 1019.8mb 58f
11:12 9 10 mph 1019.7mb 58f
11:06 9 10 mph 1019.8mb 58f
11:00 8 10 mph 1019.8mb 57f
10:54 7 9 mph 1019.8mb 58f
10:48 8 9 mph 1019.7mb 58f
10:42 8 10 mph 1019.8mb 58f
10:36 9 11 mph 1019.8mb 58f
10:30 9 10 mph 1019.8mb 58f
10:24 9 10 mph 1019.9mb 58f
10:18 8 10 mph 1019.9mb 59f
10:12 8 10 mph 1019.8mb 59f
10:06 9 13 mph 1019.8mb 59f
10:00 9 11 mph 1019.8mb 59f
9:54 9 13 mph 1019.8mb 59f
9:48 8 11 mph 1019.8mb 60f
9:42 8 10 mph 1019.8mb 60f
9:36 8 9 mph 1019.8mb 60f
9:30 7 8 mph 1019.8mb -
9:24 8 9 mph 1019.8mb -
9:18 8 9 mph 1019.8mb 61f
9:12 8 10 mph 1019.8mb 61f
9:06 8 10 mph 1019.7mb 61f
9:00 8 10 mph 1019.7mb 61f
8:54 9 11 mph 1019.7mb 61f
8:48 8 10 mph 1019.7mb 62f
8:42 7 9 mph 1019.7mb 62f
8:36 8 9 mph 1019.6mb 62f
8:30 7 8 mph 1019.5mb 62f
8:24 7 8 mph 1019.5mb 62f
8:18 7 9 mph 1019.4mb 63f
8:12 8 10 mph 1019.4mb 63f
8:06 9 10 mph 1019.3mb 63f
8:00 8 10 mph 1019.3mb 64f
7:54 8 10 mph 1019.3mb 64f
7:48 7 8 mph 1019.2mb -
7:42 6 7 mph 1019mb -
7:36 6 7 mph 1019mb -
7:30 6 8 mph 1018.9mb 65f
7:24 6 8 mph 1018.9mb 65f
7:18 6 7 mph 1018.9mb 65f
7:12 6
mph
1018.9mb 65f
7:06 6 7 mph 1018.9mb 65f
7:00  -  mph 1018.8mb 65f
6:54  -  mph 1018.7mb 66f
6:48 6 7 mph 1018.7mb -
6:42 6 8 mph 1018.6mb -
6:36 6 8 mph 1018.5mb -
6:30 6 7 mph - -
6:24 6 8 mph - -
6:18 6 7 mph 1018.4mb 68f
6:12 7 9 mph 1018.4mb 68f
6:06 8 9 mph 1018.3mb 68f
6:00 8 11 mph 1018.3mb 68f
5:54 8 11 mph 1018.2mb 68f
5:48 10 15 mph 1018.1mb 68f
5:42 10 14 mph 1018.1mb 69f
5:36 14 20 mph 1018mb 69f
5:30 11 14 mph 1018mb 69f
5:24 13 17 mph 1018mb 69f
5:18 13 16 mph 1018mb 69f
5:12 11 16 mph 1018mb 68f
5:06 15 20 mph 1017.9mb 68f
5:00 15 20 mph 1017.9mb 69f
4:54 13 16 mph 1017.9mb 69f
4:48 13 15 mph 1017.9mb 69f
4:42 11 14 mph 1017.9mb 69f
4:36 14 16 mph 1017.8mb 69f
4:30 10 14 mph 1017.8mb 70f
4:24 8 13 mph 1017.9mb 70f
4:18 10 14 mph 1017.9mb 69f
4:12 13 16 mph 1017.8mb 69f
4:06 13 17 mph 1017.8mb 70f
4:00 11 14 mph 1017.8mb 69f
3:54 9 13 mph 1017.8mb 69f
3:48 10 14 mph 1017.9mb 68f
3:42 9 13 mph 1017.9mb 68f
3:36 15 20 mph 1017.8mb 70f
3:30 6 11 mph 1018mb 70f
3:24 8 13 mph 1017.9mb 66f
3:18 6 9 mph 1018mb 67f
3:12 8 14 mph 1018.1mb 68f
3:06 8 14 mph 1018.2mb 69f
3:00 10 15 mph 1018.3mb 69f
2:54 8 10 mph 1018.3mb 68f
2:48 11 14 mph 1018.3mb 68f
2:42 15 22 mph 1018.2mb 68f
2:36 7 9 mph 1018.3mb 70f
2:30 11 16 mph 1018.3mb 69f
2:24 10 14 mph 1018.3mb 69f
2:18 6 13 mph 1018.4mb 69f
2:12 7 14 mph 1018.5mb 68f
2:06 10 14 mph 1018.5mb 67f
2:00 11 15 mph 1018.6mb 68f
1:54 6 8 mph 1018.5mb 69f
1:48 9 11 mph 1018.6mb 68f
1:42 11 16 mph 1018.8mb 67f
1:36 13 17 mph 1018.8mb 68f
1:30 10 14 mph 1018.9mb 68f
1:24 10 15 mph 1019mb 66f
1:18 8 14 mph 1019mb 66f
1:12 11 20 mph 1019mb 67f
1:06 14 18 mph 1019mb 67f
1:00 11 18 mph 1019.1mb 66f
12:54 7 11 mph 1019.2mb 66f
12:48 16 25 mph 1019.2mb 66f
12:42 11 16 mph 1019.2mb 66f
12:36 13 22 mph 1019.3mb 67f
12:30 9 14 mph 1019.4mb 66f
12:24 16 20 mph 1019.2mb 66f
12:18 8 11 mph 1019.3mb 66f
12:12 8 14 mph 1019.4mb 66f
12:06 13 18 mph 1019.4mb 66f
12:00 10 14 mph 1019.4mb 65f
11:54 13 17 mph 1019.4mb 65f
11:48 16 20 mph 1019.4mb 65f
11:42 13 18 mph 1019.4mb 65f
11:36 10 14 mph 1019.5mb 65f
11:30 13 16 mph 1019.5mb 65f
11:24 11 18 mph 1019.5mb 65f
11:18 9 13 mph 1019.6mb 64f
11:12 14 17 mph 1019.6mb 64f
11:06 13 16 mph 1019.7mb 65f
11:00 10 13 mph 1019.7mb 64f
10:54 10 13 mph 1019.6mb 64f
10:48 10 16 mph 1019.6mb 64f
10:42 11 16 mph 1019.7mb 64f
10:36 11 14 mph 1019.6mb 63f
10:30 13 17 mph 1019.6mb 63f
10:24 10 13 mph 1019.7mb 63f
10:18 11 15 mph 1019.6mb 63f
10:12 11 15 mph 1019.6mb 63f
10:06 10 17 mph 1019.7mb 63f
10:00 11 15 mph 1019.7mb 62f
9:54 11 16 mph 1019.6mb 62f
9:48 14 17 mph 1019.5mb 62f
9:42 10 14 mph 1019.5mb 62f
9:36 13 16 mph 1019.4mb 62f
9:30 11 17 mph 1019.4mb 61f
9:24 11 15 mph 1019.5mb 61f
9:18 14 17 mph 1019.5mb 61f
9:12 11 15 mph 1019.5mb 61f
9:06 10 14 mph 1019.6mb 61f
9:00 10 15 mph 1019.6mb 60f
8:54 13 16 mph 1019.6mb 60f
8:48 10 15 mph 1019.6mb 60f
8:42 11 15 mph 1019.5mb 60f
8:36 10 14 mph 1019.6mb 60f
8:30 8 10 mph 1019.6mb 59f
8:24 8 11 mph 1019.7mb 59f
8:18 9 11 mph 1019.7mb 59f
8:12 8 10 mph 1019.6mb 59f
8:06 9 13 mph 1019.5mb 58f
8:00 9 11 mph 1019.6mb 58f
7:54 7 9 mph 1019.5mb 58f
7:48 8 9 mph 1019.5mb 58f
7:42 7 9 mph 1019.6mb 58f
7:36 6 8 mph 1019.5mb 58f
7:30 6 9 mph 1019.4mb 58f
7:24 9 11 mph 1019.3mb 58f
7:18 9 13 mph 1019.2mb 58f
7:12 9 11 mph 1019.2mb 58f
7:06 9 11 mph 1019.2mb 58f
7:00 10 13 mph 1019.1mb 58f
6:54 9 13 mph 1019.2mb 58f
6:48 10 14 mph 1018.8mb 58f
6:42 10 13 mph 1018.8mb 58f
6:36 9 11 mph 1018.7mb 58f
6:30 9 11 mph 1018.6mb 58f
6:24 9 11 mph 1018.8mb 58f
6:18 8 11 mph 1019mb 58f
6:12 8 10 mph 1018.9mb 58f
6:06 7 9 mph 1018.9mb 58f
6:00 7 10 mph 1018.9mb 58f
5:54 8 11 mph 1019mb 58f
5:48 7 10 mph 1019mb 58f
5:42 7 9 mph 1018.8mb 58f
5:36 8 10 mph 1018.7mb 59f
5:30 7 8 mph 1018.6mb 59f
5:24 8 10 mph 1018.6mb 59f
5:18 6 8 mph 1018.6mb 59f
5:12 7 9 mph 1018.6mb 59f
5:06 6 7 mph 1018.6mb 59f
5:00 6 7 mph 1018.5mb 59f
4:54 6 8 mph 1018.5mb 59f
4:48 7 8 mph 1018.5mb 59f
4:42 6 7 mph 1018.5mb 59f
4:36 7 8 mph 1018.4mb 59f
4:30 8 11 mph 1018.4mb 59f
4:24 8 10 mph 1018.3mb 59f
4:18 8 10 mph 1018.4mb 59f
4:12 9 13 mph 1018.1mb 59f
4:06 8 10 mph 1018.2mb 59f
4:00 9 11 mph 1018.2mb 59f
3:54 10 14 mph 1018.1mb 59f
3:48 11 14 mph 1018.1mb 59f
3:42 10 13 mph 1018.4mb 58f
3:36 9 11 mph 1018.5mb 58f
3:30 9 13 mph 1018.6mb 59f
3:24 9 11 mph 1018.5mb 59f
3:18 9 14 mph 1018.4mb 59f
3:12 10 14 mph 1018.3mb 59f
3:06 9 11 mph 1018.3mb 59f
3:00 10 13 mph 1018.5mb 59f
2:54 9 11 mph 1018.6mb 59f
2:48 10 13 mph 1018.6mb 59f
2:42 10 15 mph 1018.6mb 59f
2:36 10 13 mph 1018.5mb 59f
2:30 13 16 mph 1018.5mb 59f
2:24 15 18 mph 1018.3mb 59f
2:18 16 21 mph 1018.4mb 59f
2:12 14 18 mph 1018.6mb 60f
2:06 16 22 mph 1018.6mb 60f
2:00 17 22 mph 1018.4mb 60f
1:54 15 18 mph 1018.5mb 60f
1:48 15 17 mph 1018.5mb 60f
1:42 15 18 mph 1018.5mb 59f
1:36 13 16 mph 1018.5mb 59f
1:30 15 20 mph 1018.6mb 59f
1:24 17 23 mph 1018.6mb 59f
1:18 17 22 mph 1018.6mb 60f
1:12 18 22 mph 1018.2mb 61f
1:06 17 21 mph 1018.4mb 60f
1:00 14 21 mph 1018.4mb 60f
12:54 15 22 mph 1018.4mb 60f
12:48 15 18 mph 1018.2mb 61f
12:42 15 22 mph 1017.7mb 60f
12:36 15 20 mph 1017.8mb 60f
12:30 15 18 mph 1018.2mb 61f
12:24 13 15 mph 1018.3mb 61f
12:18 14 20 mph 1018.4mb 61f
12:12 16 21 mph 1018.3mb 62f
12:06 14 18 mph 1018.3mb 62f
12:00 20 24 mph 1018mb 63f
Sex 09/23 11:54 15 18 mph 1017.9mb 64f
11:48 15 18 mph 1018.2mb 63f
11:42 14 18 mph 1018.3mb 64f
11:36 16 21 mph 1017.9mb 63f
11:30 13 16 mph 1017.9mb 63f
11:24 13 16 mph 1018mb 64f
11:18 15 18 mph 1017.9mb 64f
11:12 20 23 mph 1017.8mb 64f
11:06 16 20 mph 1018mb 64f
11:00 16 23 mph 1017.9mb 64f
10:54 21 25 mph 1017.4mb 64f
10:48 21 29 mph 1017.5mb 64f
10:42 22 25 mph 1017.4mb 65f
10:36 21 26 mph 1017.5mb 65f
10:30 20 25 mph 1017.5mb 64f
10:24 22 25 mph 1017.4mb 65f
10:18 21 26 mph 1017.2mb 65f
10:12 20 23 mph 1017.1mb 65f
10:06 18 22 mph 1017.2mb 65f
10:00 15 18 mph 1017.1mb 65f
9:54 15 20 mph 1016.8mb 65f
9:48 16 21 mph 1016.7mb 65f
9:42 16 21 mph 1016.6mb 65f
9:36 18 25 mph 1016.4mb 66f
9:30 17 24 mph 1016.6mb 66f
9:24 20 24 mph 1016.6mb 66f
9:18 17 22 mph 1016.6mb 66f
9:12 15 23 mph 1016.5mb 67f
9:06 16 23 mph 1016.4mb 67f
9:00 15 20 mph 1016.3mb 67f
8:54 18 22 mph 1016.1mb 67f
8:48  -  mph 1016.1mb -
8:42  -  mph 1016.1mb -
8:36  -  mph 1015.9mb -
8:30 18 22 mph 1016mb 69f
8:24 21 26 mph 1015.9mb 69f
8:18 21 26 mph 1015.7mb 70f
8:12 16 21 mph 1015.5mb 70f
8:06 22 28 mph 1015.4mb 70f
8:00 18 23 mph 1015.3mb 71f
7:54 17 22 mph 1015.2mb 71f
7:48 16 21 mph 1015.1mb -
7:42 18 23 mph 1015.1mb -
7:36 14 18 mph 1015.1mb -
7:30 13 16 mph - -
7:24 11 14 mph - -
7:18 11 14 mph 1015mb 74f
7:12 13 15 mph 1014.9mb 74f
7:06 11 15 mph 1014.9mb 74f
7:00 13 16 mph 1014.8mb 73f
6:54 3
mph
1014.4mb 74f
6:48 1 2 mph 1014.3mb -
6:42 2 5 mph 1014.2mb -
6:36 5 6 mph 1014.1mb -
6:30 5 6 mph 1014.1mb 74f
6:24 6
mph
1014mb 74f
6:18 6
mph
1014mb 74f
6:12 6 7 mph 1013.9mb 74f
6:06 7 8 mph 1013.9mb 74f
6:00 7 8 mph 1013.9mb -
5:54 7 8 mph 1013.9mb -
5:48 8
mph
1013.8mb 75f
5:42 9
mph
1013.7mb 75f
5:36 8
mph
1013.7mb 75f
5:30 7
mph
1013.7mb 76f
5:24 7
mph
1013.6mb 76f
5:18 7
mph
1013.6mb 76f
5:12 6
mph
1013.6mb 76f
5:06 6
mph
1013.6mb 76f
5:00 6 7 mph 1013.6mb 76f
4:54 7
mph
1013.6mb 76f
4:48 7
mph
1013.6mb 76f
4:42 6 7 mph 1013.6mb 76f
4:36 7 8 mph 1013.6mb 76f
4:30 8 9 mph 1013.6mb 76f
4:24 8 9 mph 1013.6mb 76f
4:18 9
mph
1013.7mb 77f
4:12 9 10 mph 1013.7mb 77f
4:06 9 10 mph 1013.6mb 76f
4:00 8 9 mph 1013.6mb 77f
3:54 9 10 mph 1013.5mb 76f
3:48 9 10 mph 1013.6mb 76f
3:36 8 9 mph 1013.8mb 76f
3:30 8 9 mph 1014mb 76f
3:24 9 10 mph 1014.1mb 76f
3:18 10 13 mph 1014mb 75f
3:12 10 11 mph 1014.1mb 74f
3:06 11 13 mph 1014.2mb 74f
3:00 11
mph
1014.1mb 74f
2:54 9 10 mph 1014.1mb 75f
2:48 8 10 mph 1014.1mb 75f
2:42 8 9 mph 1014.1mb 75f
2:36 8 9 mph 1014.2mb 75f
2:30 7 8 mph 1014.3mb 76f
2:24 7 8 mph 1014.3mb 76f
2:18 8 9 mph 1014.4mb 76f
2:12 8 9 mph 1014.2mb 76f
2:06 9 10 mph 1014.4mb 77f
2:00 10 13 mph 1014.4mb 76f
1:54 9 13 mph 1014.5mb 76f
1:48 8 10 mph 1014.5mb 76f
1:42 9 10 mph 1014.6mb 76f
1:36 8 9 mph 1014.8mb 75f
1:30 9 10 mph 1014.8mb 75f
1:24 9
mph
1015mb 74f
1:18 9 10 mph 1015.1mb 74f
1:12 8 9 mph 1015.2mb 74f
1:06 8 9 mph 1015.3mb 75f
1:00 9 10 mph 1015.3mb 75f
12:54 10 11 mph 1015.2mb 74f
12:48 10
mph
1015.3mb 73f
12:42 9 10 mph 1015.3mb 73f
12:36 10 11 mph 1015.3mb 73f
12:30 11 13 mph 1015.4mb 73f
12:24 13 14 mph 1015.4mb 74f
12:18 11 14 mph 1015.3mb 74f
12:12 10 11 mph 1015.3mb 74f
12:06 10 11 mph 1015.3mb 74f
12:00 10
mph
1015.4mb 74f
11:54 9 10 mph 1015.5mb 74f
11:48 9 10 mph 1015.5mb 74f
11:42 8 9 mph 1015.6mb 73f
11:36 8 10 mph 1015.6mb 73f
11:30 10 11 mph 1015.6mb 73f
11:24 10 11 mph 1015.8mb 73f
11:18 9 11 mph 1015.8mb 72f
11:12 9 10 mph 1015.8mb 72f
11:06 8 9 mph 1015.8mb 71f
11:00 7 9 mph 1015.8mb 72f
10:54 8 10 mph 1015.9mb 71f
10:48 8 9 mph 1016.1mb 71f
10:42 7 8 mph 1016.3mb 70f
10:36 7 8 mph 1016.4mb 70f
10:30 7 8 mph 1016.5mb 70f
10:24 8 9 mph 1016.6mb 70f
10:18 8 9 mph 1016.6mb 70f
10:12 6
mph
1016.7mb 69f
10:00 6 8 mph 1016.8mb 69f
9:54 5
mph
1016.9mb 69f
9:48 3 5 mph 1016.9mb 68f
9:42 3 5 mph 1016.9mb 68f
9:36 5 6 mph 1017mb 68f
9:30 3 5 mph 1017.1mb 68f
9:24 3 5 mph 1017.3mb 67f
9:18 2 3 mph 1017.2mb 67f
9:12 2 3 mph 1017.2mb 67f
9:06 2
mph
1017.3mb 67f
9:00 1 2 mph 1017.3mb 67f
8:54  -  1 mph 1017.3mb 67f
8:48  -  1 mph 1017.3mb 67f
8:42 1 2 mph 1017.3mb 66f
8:36 2 3 mph 1017.3mb 66f
8:30  -  1 mph 1017.4mb 66f
8:24  -  2 mph 1017.4mb 66f
8:18 2 5 mph 1017.5mb 67f
8:12 5 6 mph 1017.6mb 67f
8:06 5 6 mph 1017.5mb 66f
8:00  -  3 mph 1017.5mb 66f
7:54 1 2 mph 1017.5mb 66f
7:48 2 3 mph 1017.6mb 66f
7:42 2 3 mph 1017.6mb 66f
7:36 2 3 mph 1017.6mb 66f
7:30 3 5 mph 1017.5mb 66f
7:24 2 3 mph 1017.5mb 66f
7:18 2 3 mph 1017.5mb 66f
7:12 2 3 mph 1017.5mb 66f
7:06 2
mph
1017.4mb 66f
7:00  -  1 mph 1017.2mb 66f
6:54  -  mph 1017.3mb 65f
6:48  -  2 mph 1017.4mb 65f
6:42 1
mph
1017.3mb 64f
6:36 1 2 mph 1017.2mb 65f
6:30 1 2 mph 1017.2mb 65f
6:24 2 3 mph 1017.3mb 65f
6:18 1 2 mph 1017.2mb 65f
6:12  -  1 mph 1017.1mb 65f
6:06 3
mph
1017.2mb 65f
6:00 2 3 mph 1017.3mb 65f
5:54 2 3 mph 1017.3mb 66f
5:48 2 3 mph 1017.3mb 65f
5:42 3
mph
1017.2mb 65f
5:36 3
mph
1017.2mb 66f
5:30 1 2 mph 1017.1mb 65f
5:24 2 3 mph 1017.2mb 65f
5:18 2 3 mph 1017.1mb 65f
5:12 3 5 mph 1017.1mb 65f
5:06 2
mph
1017.2mb 65f
5:00 2 3 mph 1017.3mb 65f
4:54 3
mph
1017.2mb 66f
4:48 2 3 mph 1017.2mb 65f
4:42 1 2 mph 1017.4mb 66f
4:36 2 3 mph 1017.5mb 66f
4:30 2 3 mph 1017.6mb 66f
4:24 1 2 mph 1017.7mb 66f
4:18 2 3 mph 1017.7mb 66f
4:12  -  mph 1017.7mb 66f
4:06 1 3 mph 1017.6mb 66f
4:00 2
mph
1017.5mb 66f
3:54 2 3 mph 1017.5mb 66f
3:48 2
mph
1017.5mb 66f
3:42 2 3 mph 1017.5mb 66f
3:36 3 5 mph 1017.4mb 66f
3:30 3 5 mph 1017.4mb 66f
3:24 3 5 mph 1017.4mb 66f
3:18 2 3 mph 1017.5mb 66f
3:12 2
mph
1017.5mb 66f
3:06 1 2 mph 1017.7mb 66f
3:00 2
mph
1017.6mb 66f
2:54 2 3 mph 1017.6mb 66f
2:48  -  1 mph 1017.8mb -
2:42  -  1 mph 1017.9mb -
2:36  -  1 mph 1018mb -
2:30 1 2 mph 1018.1mb 67f
2:24  -  1 mph 1018.2mb 67f
2:18  -  1 mph 1018.2mb 67f
2:12 1 2 mph 1018.2mb 67f
2:06 1
mph
1018.3mb 67f
2:00 1 2 mph 1018.2mb 67f
1:54 2 3 mph 1018.2mb 67f
1:48 2
mph
1018.3mb 67f
1:42 1 2 mph 1018.4mb 67f
1:36 2 3 mph 1018.4mb 68f
1:30 2 3 mph 1018.4mb 68f
1:24 2
mph
1018.5mb 68f
1:12 3 5 mph 1018.5mb 68f
1:06 3 5 mph 1018.6mb 68f
1:00 2 5 mph 1018.7mb 68f
12:54 3 6 mph 1018.8mb 68f
12:48 3
mph
1018.8mb 68f
12:42 3 5 mph 1018.9mb 68f
12:36 3 6 mph 1019mb 69f
12:30 3 5 mph 1019.1mb 69f
12:24 6
mph
1019mb 68f
12:18 3 5 mph 1019mb 68f
12:12 3 5 mph 1019mb 68f
12:06 3 5 mph 1019mb 68f
12:00 3 5 mph 1019mb 68f
Qui 09/22 11:54 3 5 mph 1019.1mb 68f
11:48 3 5 mph 1019.1mb 68f
11:42 3 5 mph 1019.2mb 68f
11:36 6 7 mph 1019.2mb 68f
11:30 7 8 mph 1019.3mb 68f
11:24 7 8 mph 1019.4mb 68f
11:18 6 7 mph 1019.5mb 68f
11:12 7
mph
1019.5mb 68f
11:06 7 8 mph 1019.5mb 68f
11:00 6
mph
1019.5mb 68f
10:54 5
mph
1019.6mb 68f
10:48 3 5 mph 1019.7mb 69f
10:42 3
mph
1019.8mb 69f
10:36 2 3 mph 1019.8mb 69f
10:30 2 3 mph 1019.8mb -
10:24 3 5 mph 1019.9mb -
10:18  -  mph 1019.9mb 69f
10:12  -  mph 1019.9mb 69f
10:06  -  mph 1019.9mb 69f
10:00 6 7 mph 1019.9mb 69f
9:54 7 8 mph 1019.8mb 69f
9:48 8
mph
1019.9mb -
9:42 7 8 mph 1019.9mb -
9:36 7
mph
1019.9mb -
9:30 6 7 mph 1019.9mb -
9:24 6 7 mph 1019.9mb -
9:18 7 9 mph - 69f
9:12 8 9 mph - 69f
9:06 7 8 mph - 70f
9:00 7 8 mph 1020.1mb 70f
8:54 7 8 mph 1020.2mb 70f
8:48 7 9 mph 1020.2mb 70f
8:42 7 8 mph 1020.2mb 70f
8:36 7 8 mph 1020.2mb 70f
8:30 7 9 mph 1020.2mb 71f
8:24 5 6 mph 1020.3mb 71f
8:18 3 6 mph 1020.3mb 71f
8:12 5 6 mph 1020.2mb 71f
8:06 3 6 mph 1020.1mb 71f
8:00 5 7 mph 1020.1mb 72f
7:54 5 7 mph 1020.1mb 72f
7:48 5 7 mph 1020mb -
7:42 3 6 mph 1020mb -
7:36 3 6 mph 1019.9mb -
7:30 5 6 mph - 73f
7:24 6 8 mph - 73f
7:18 6 8 mph 1019.8mb -
7:12 6 8 mph 1019.8mb -
7:06 6 8 mph 1019.8mb -
7:00 6 7 mph - 74f
6:54 6 8 mph - 74f
6:48 5 7 mph 1019.8mb -
6:42 6 7 mph 1019.8mb -
6:36 7 9 mph 1019.8mb -
6:30 8 10 mph 1019.8mb 76f
6:24 9 10 mph 1019.8mb 76f
6:18 8 10 mph 1019.8mb 77f
6:12 9 10 mph 1019.8mb 77f
6:06 9 10 mph 1019.8mb 77f
6:00 7 9 mph 1019.9mb 77f
5:54 8 10 mph 1019.9mb 76f
5:48 8 11 mph 1019.9mb 76f
5:42 10 11 mph 1019.9mb 76f
5:36 9 11 mph 1019.8mb 76f
5:30 13 14 mph 1019.8mb 76f
5:24 14 15 mph 1019.8mb 76f
5:18 14
mph
1019.8mb 76f
5:12 14
mph
1019.8mb 76f
5:06 14
mph
1019.8mb 76f
5:00 15 16 mph 1019.8mb 76f
4:54 14 15 mph 1019.8mb 76f
4:48 14 15 mph 1019.8mb 76f
4:42 14 15 mph 1019.8mb 76f
4:36 14 15 mph 1019.7mb 77f
4:30 13 15 mph 1019.7mb 76f
4:24 15 16 mph 1019.7mb 77f
4:18 15 16 mph 1019.8mb 77f
4:12 14 15 mph 1019.8mb 77f
4:06 14 15 mph 1019.9mb 77f
4:00 13 14 mph 1020mb 77f
3:54 13 14 mph 1020mb 77f
3:48 11 13 mph 1020mb 77f
3:42 11 13 mph 1020mb 77f
3:36 10 11 mph 1020mb 77f
3:30 10
mph
1020mb 77f
3:24 10
mph
1020mb 77f
3:18 10 11 mph 1020mb 77f
3:12 10
mph
1019.9mb 77f
3:06 11
mph
1019.9mb 77f
3:00 10 11 mph 1019.9mb 77f
2:54 10
mph
1019.9mb 77f
2:48 10 11 mph 1019.9mb 77f
2:42 10 11 mph 1020.1mb 77f
2:36 11
mph
1020.1mb 77f
2:30 10
mph
1020.1mb 77f
2:24 10 11 mph 1020.1mb 76f
2:18 10 11 mph 1020.2mb 77f
2:12 10
mph
1020.2mb 77f
2:06 9 10 mph 1020.2mb 76f
2:00 10 11 mph 1020.4mb 76f
1:54 10 11 mph 1020.4mb 77f
1:48 11
mph
1020.5mb 76f
1:42 13
mph
1020.5mb 76f
1:36 14
mph
1020.6mb 76f
1:30 14
mph
1020.7mb 76f
1:24 13 14 mph 1020.8mb 76f
1:18 11 13 mph 1020.9mb 76f
1:12 8 10 mph 1021.1mb 76f
1:06 9 10 mph 1021.1mb 76f
1:00 9 11 mph 1021.2mb 78f
12:54 7 9 mph 1021.4mb 80f
12:48 3 7 mph 1021.5mb 81f
12:42 2 6 mph 1021.4mb 80f
12:30 3 5 mph 1021.5mb 83f
12:24 6 8 mph 1021.6mb 82f
12:18 6 9 mph 1021.6mb 80f
12:12 5 7 mph 1021.6mb 80f
12:06 5 6 mph 1021.6mb 80f
12:00 6 8 mph 1021.7mb 80f
11:54 5 8 mph 1021.8mb 79f
11:48 6 7 mph 1021.9mb 81f
11:42 7 9 mph 1022.1mb 80f
11:36 8 11 mph 1022.2mb 79f
11:30 7 11 mph 1022.3mb 79f
11:24 5 7 mph 1022.4mb 81f
11:18 6 8 mph 1022.4mb 80f
11:12 7 9 mph 1022.4mb 80f
11:06 7 9 mph 1022.4mb 80f
11:00 6 7 mph 1022.4mb 80f
10:54 7 8 mph 1022.5mb 79f
10:48 7 9 mph 1022.5mb 78f
10:42 7 8 mph 1022.5mb 78f
10:36 8 9 mph 1022.6mb 77f
10:30 8
mph
1022.7mb 77f
10:24 7 9 mph 1022.7mb 76f
10:18 8 9 mph 1022.7mb 76f
10:12 7 8 mph 1022.6mb 76f
10:06 8
mph
1022.6mb 75f
10:00 7 8 mph 1022.6mb 75f
9:54 7 8 mph 1022.5mb 74f
9:48 7
mph
1022.5mb 74f
9:42 7
mph
1022.5mb 73f
9:36 7 8 mph 1022.5mb 73f
9:30 6 7 mph 1022.5mb 72f
9:24 6 7 mph 1022.5mb 72f
9:18 5 6 mph 1022.5mb 71f
9:12 5 6 mph 1022.4mb 71f
9:06 5 6 mph 1022.4mb 70f
9:00 5 6 mph 1022.3mb 70f
8:54 5 6 mph 1022.3mb 69f
8:48 6
mph
1022.3mb 69f
8:42 5 6 mph 1022.3mb 68f
8:36 6
mph
1022.2mb 68f
8:30 6 7 mph 1022.1mb 67f
8:24 7
mph
1022mb 67f
8:18 7 8 mph 1022mb 67f
8:12 6 7 mph 1022mb 67f
8:06 6 7 mph 1022mb 67f
8:00 6
mph
1022mb 66f
7:54 5 6 mph 1022mb 66f
7:48 5 6 mph 1022.1mb 66f
7:42 5 6 mph 1022.1mb 66f
7:36 5 6 mph 1022.1mb 66f
7:30 5
mph
1022mb 66f
7:24 3 5 mph 1022mb 65f
7:18 3
mph
1021.9mb 65f
7:12 3 5 mph 1021.8mb 65f
7:06 3
mph
1021.8mb 65f
7:00 3
mph
1021.8mb 65f
6:54 2 3 mph 1021.8mb 65f
6:48 2 3 mph 1021.8mb 65f
6:42 2 3 mph 1021.8mb 65f
6:36 2
mph
1021.7mb 65f
6:30 2 3 mph 1021.7mb 65f
6:24 3
mph
1021.6mb 65f
6:18 2 3 mph 1021.6mb 65f
6:12 1 2 mph 1021.6mb 65f
6:00 1 2 mph 1021.5mb 65f
5:54 1 2 mph 1021.5mb 65f
5:48 2 3 mph 1021.5mb 65f
5:42 2
mph
1021.4mb 65f
5:36 2
mph
1021.5mb 65f
5:30 1 2 mph 1021.6mb 65f
5:24 1 2 mph 1021.6mb 66f
5:18 3
mph
1021.6mb 66f
5:06 1 2 mph 1021.4mb 66f
5:00 2
mph
1021.5mb 66f
4:54 1 2 mph 1021.4mb 66f
4:48 2 3 mph 1021.4mb 66f
4:42  -  1 mph 1021.3mb 66f
4:36 2
mph
1021.4mb 66f
4:30 2
mph
1021.4mb 67f
4:24 2
mph
1021.3mb 66f
4:18 2 3 mph 1021.3mb 67f
4:12 3
mph
1021.2mb 67f
4:06 1 2 mph 1021.1mb 67f
4:00  -  mph 1021.2mb 66f
3:54  -  2 mph 1021.2mb 66f
3:48 2
mph
1021.2mb 66f